Time;durP1;ratioP1;P1;durP2;ratioP2;P2;SDS_P1;SDS_P2;PMS_P1;PMS_P2;Temp;Humidity;BMP_temperature;BMP_pressure;BME280_temperature;BME280_humidity;BME280_pressure;Samples;Min_cycle;Max_cycle;Signal;HPM_P1;HPM_P2
2022/11/26 00:00:21;;;;;;;3.43;2.60;;;16.60;66.10;17.60;101752.00;;;;5072932;28;20211;-44
2022/11/26 00:02:46;;;;;;;2.70;2.50;;;16.60;66.20;17.60;101754.00;;;;5052125;28;20178;-45
2022/11/26 00:05:13;;;;;;;3.53;2.67;;;16.60;66.20;17.60;101752.00;;;;5069783;28;20204;-44
2022/11/26 00:07:40;;;;;;;3.10;2.50;;;16.60;66.30;17.60;101757.00;;;;5069808;28;20197;-45
2022/11/26 00:10:17;;;;;;;2.83;2.40;;;16.50;66.20;17.60;101764.00;;;;5068348;28;20638;-44
2022/11/26 00:12:43;;;;;;;3.17;2.63;;;16.50;66.10;17.60;101762.00;;;;5068814;28;20160;-44
2022/11/26 00:15:16;;;;;;;2.80;2.40;;;16.50;66.10;17.60;101760.00;;;;5069374;28;20178;-47
2022/11/26 00:17:41;;;;;;;2.67;2.40;;;16.50;66.10;17.60;101772.00;;;;5033440;28;1048905;-45
2022/11/26 00:20:07;;;;;;;2.33;2.13;;;16.50;66.20;17.60;101767.00;;;;5070336;28;20242;-46
2022/11/26 00:22:39;;;;;;;2.70;2.13;;;16.50;66.20;17.60;101759.00;;;;5070516;28;20176;-45
2022/11/26 00:25:12;;;;;;;3.13;2.30;;;16.40;66.00;17.50;101771.00;;;;5036342;28;20174;-43
2022/11/26 00:27:38;;;;;;;3.73;2.43;;;16.40;66.00;17.50;101782.00;;;;5052489;28;20264;-45
2022/11/26 00:30:30;;;;;;;2.40;2.20;;;16.40;66.00;17.50;101789.00;;;;5070366;28;20179;-49
2022/11/26 00:32:57;;;;;;;3.50;2.60;;;16.40;66.00;17.50;101791.00;;;;5065566;28;20209;-44
2022/11/26 00:35:23;;;;;;;3.03;2.43;;;16.40;66.00;17.50;101800.00;;;;5069439;28;20200;-44
2022/11/26 00:37:52;;;;;;;3.00;2.50;;;16.40;66.10;17.50;101756.00;;;;5068046;28;20182;-45
2022/11/26 00:40:26;;;;;;;2.83;2.53;;;16.40;66.10;17.50;101800.00;;;;5067940;28;20202;-46
2022/11/26 00:42:52;;;;;;;2.63;2.43;;;16.40;66.20;17.50;101789.00;;;;5068945;28;20251;-43
2022/11/26 00:45:24;;;;;;;3.07;2.60;;;16.40;66.00;17.50;101790.00;;;;5069402;28;20194;-45
2022/11/26 00:47:50;;;;;;;3.00;2.57;;;16.40;66.00;17.50;101786.00;;;;5068364;28;20239;-46
2022/11/26 00:50:19;;;;;;;2.77;2.30;;;16.40;66.10;17.50;101791.00;;;;5069208;28;20205;-47
2022/11/26 00:52:46;;;;;;;2.40;2.20;;;16.30;66.00;17.50;101804.00;;;;5068864;28;20169;-46
2022/11/26 00:55:33;;;;;;;3.00;2.50;;;16.30;66.00;17.40;101798.00;;;;5069917;28;20170;-45
2022/11/26 00:57:59;;;;;;;3.00;2.23;;;16.30;66.00;17.40;101799.00;;;;5070603;28;20165;-44
2022/11/26 01:00:28;;;;;;;2.60;2.40;;;16.30;66.00;17.40;101812.00;;;;5070025;28;20528;-45
2022/11/26 01:02:54;;;;;;;2.30;2.10;;;16.30;66.10;17.40;101812.00;;;;5068933;28;20182;-44
2022/11/26 01:05:20;;;;;;;2.77;2.47;;;16.30;66.10;17.40;101811.00;;;;5068442;28;20295;-45
2022/11/26 01:07:46;;;;;;;2.57;2.37;;;16.20;66.00;17.40;101831.00;;;;5068775;28;20205;-45
2022/11/26 01:10:19;;;;;;;2.40;2.20;;;16.20;66.00;17.30;101823.00;;;;5067442;28;20181;-45
2022/11/26 01:12:45;;;;;;;2.80;2.50;;;16.20;66.10;17.30;101831.00;;;;5068559;28;20163;-45
2022/11/26 01:15:12;;;;;;;2.60;2.40;;;16.20;66.10;17.30;101827.00;;;;5068589;28;20200;-45
2022/11/26 01:17:37;;;;;;;2.63;2.43;;;16.20;66.10;17.30;101843.00;;;;5067226;28;20197;-45
2022/11/26 01:20:10;;;;;;;2.30;2.10;;;16.20;66.20;17.30;101846.00;;;;5068616;28;20179;-44
2022/11/26 01:22:35;;;;;;;2.53;2.33;;;16.20;66.10;17.30;101848.00;;;;5050645;28;20185;-45
2022/11/26 01:25:01;;;;;;;2.77;2.27;;;16.20;66.20;17.30;101841.00;;;;5068579;28;20239;-45
2022/11/26 01:27:27;;;;;;;2.63;2.37;;;16.10;66.10;17.30;101842.00;;;;5068421;28;20273;-45
2022/11/26 01:29:52;;;;;;;2.60;2.30;;;16.20;66.20;17.30;101841.00;;;;5068717;28;20651;-46
2022/11/26 01:32:18;;;;;;;3.53;2.30;;;16.10;66.10;17.30;101845.00;;;;5068399;28;20181;-45
2022/11/26 01:34:44;;;;;;;3.07;2.50;;;16.10;66.10;17.20;101852.00;;;;5068608;28;20204;-45
2022/11/26 01:37:12;;;;;;;2.40;2.20;;;16.10;67.00;17.30;101846.00;;;;5068815;28;20194;-44
2022/11/26 01:39:38;;;;;;;3.23;2.27;;;16.00;66.20;17.20;101853.00;;;;5050840;28;20177;-44
2022/11/26 01:42:41;;;;;;;2.60;2.30;;;16.10;66.20;17.20;101853.00;;;;5067945;28;20181;-44
2022/11/26 01:45:18;;;;;;;2.67;2.47;;;16.00;66.10;17.20;101862.00;;;;5050461;28;20741;-45
2022/11/26 01:47:47;;;;;;;3.33;2.53;;;16.10;66.30;17.20;101864.00;;;;5068197;28;20201;-44
2022/11/26 01:50:31;;;;;;;2.70;2.40;;;16.10;66.20;17.20;101859.00;;;;5068432;28;20177;-44
2022/11/26 01:53:03;;;;;;;2.40;2.20;;;16.00;66.20;17.20;101855.00;;;;5067870;28;20200;-44
2022/11/26 01:55:53;;;;;;;2.40;2.20;;;16.00;66.20;17.20;101853.00;;;;5066774;28;20196;-45
2022/11/26 01:58:44;;;;;;;2.73;2.23;;;16.00;66.20;17.20;101845.00;;;;5049809;28;20685;-45
2022/11/26 02:01:09;;;;;;;2.80;2.40;;;16.00;66.30;17.10;101854.00;;;;5050383;28;20185;-46
2022/11/26 02:03:47;;;;;;;2.30;2.10;;;15.90;66.20;17.10;101857.00;;;;5066812;28;20165;-45
2022/11/26 02:06:16;;;;;;;2.17;2.07;;;16.00;66.40;17.10;101857.00;;;;5050370;28;20209;-45
2022/11/26 02:08:42;;;;;;;2.53;2.33;;;15.90;66.30;17.10;101857.00;;;;5033349;28;20260;-43
2022/11/26 02:11:20;;;;;;;2.57;2.17;;;15.90;66.30;17.10;101852.00;;;;5066893;28;20810;-47
2022/11/26 02:13:48;;;;;;;2.60;2.20;;;15.90;66.40;17.10;101838.00;;;;5067671;28;20157;-44
2022/11/26 02:16:21;;;;;;;2.50;2.30;;;15.90;66.30;17.10;101856.00;;;;5033446;28;20193;-46
2022/11/26 02:19:22;;;;;;;2.20;2.00;;;15.90;66.30;17.10;101850.00;;;;5067082;28;20154;-45
2022/11/26 02:21:55;;;;;;;2.30;2.10;;;15.90;66.80;17.00;101859.00;;;;4997237;28;20190;-46
2022/11/26 02:24:36;;;;;;;2.37;2.10;;;15.90;66.30;17.00;101861.00;;;;5050123;28;20178;-45
2022/11/26 02:27:34;;;;;;;2.33;2.13;;;15.90;66.40;17.00;101858.00;;;;5066474;28;20197;-44
2022/11/26 02:30:14;;;;;;;2.50;2.30;;;15.80;66.30;17.00;101853.00;;;;5066482;28;20153;-46
2022/11/26 02:33:02;;;;;;;2.30;2.10;;;15.90;66.50;17.00;101853.00;;;;5066511;28;20737;-45
2022/11/26 02:35:43;;;;;;;2.40;2.20;;;15.80;66.40;16.90;101857.00;;;;5066718;28;20213;-44
2022/11/26 02:38:21;;;;;;;2.40;2.20;;;15.80;66.40;16.90;101852.00;;;;5049800;28;20256;-44
2022/11/26 02:40:47;;;;;;;2.40;2.20;;;15.80;66.40;16.90;101870.00;;;;5053085;28;20169;-45
2022/11/26 02:43:14;;;;;;;2.30;2.10;;;15.80;66.60;16.90;101858.00;;;;5071651;28;20260;-44
2022/11/26 02:45:42;;;;;;;2.17;2.00;;;15.80;66.50;16.90;101856.00;;;;5067847;28;20196;-44
2022/11/26 02:48:12;;;;;;;2.50;2.10;;;15.80;66.60;16.90;101859.00;;;;5049677;28;20563;-45
2022/11/26 02:50:43;;;;;;;2.20;2.00;;;15.80;66.60;16.90;101855.00;;;;5067436;28;20161;-47
2022/11/26 02:53:09;;;;;;;2.37;2.17;;;15.80;66.50;16.90;101839.00;;;;5049834;28;20154;-46
2022/11/26 02:55:38;;;;;;;2.10;1.90;;;15.80;66.40;16.90;101841.00;;;;5033224;28;20320;-46
2022/11/26 02:58:04;;;;;;;2.40;2.20;;;15.80;66.50;16.90;101850.00;;;;5049614;28;20173;-45
2022/11/26 03:00:32;;;;;;;2.50;2.30;;;15.70;66.40;16.90;101847.00;;;;5066544;28;20543;-44
2022/11/26 03:03:04;;;;;;;2.50;2.30;;;15.70;66.50;16.90;101843.00;;;;5049307;28;20185;-45
2022/11/26 03:05:31;;;;;;;2.50;2.30;;;15.70;66.60;16.90;101854.00;;;;5049550;28;20288;-46
2022/11/26 03:07:57;;;;;;;2.30;2.10;;;15.70;66.60;16.90;101844.00;;;;5033093;28;20520;-44
2022/11/26 03:10:27;;;;;;;2.30;2.10;;;15.70;66.60;16.80;101855.00;;;;5051603;28;20166;-46
2022/11/26 03:12:53;;;;;;;2.90;2.40;;;15.70;66.70;16.80;101855.00;;;;5053279;28;20577;-45
2022/11/26 03:15:19;;;;;;;2.33;2.13;;;15.70;66.60;16.80;101854.00;;;;5069864;28;20185;-46
2022/11/26 03:17:45;;;;;;;1.90;1.80;;;15.70;66.60;16.60;101855.00;;;;5071080;28;20174;-45
2022/11/26 03:20:10;;;;;;;2.33;2.13;;;15.70;66.60;16.80;101862.00;;;;5069689;28;20679;-45
2022/11/26 03:22:36;;;;;;;2.30;2.10;;;15.70;66.60;16.80;101860.00;;;;5070687;28;20197;-45
2022/11/26 03:25:03;;;;;;;2.67;2.30;;;15.60;66.40;16.80;101855.00;;;;5069586;28;20174;-44
2022/11/26 03:27:29;;;;;;;2.30;2.10;;;15.60;66.50;16.80;101859.00;;;;5071272;28;20244;-44
2022/11/26 03:29:54;;;;;;;2.00;1.90;;;15.60;66.50;16.80;101853.00;;;;5070674;28;20577;-44
2022/11/26 03:32:20;;;;;;;2.40;2.20;;;15.60;66.60;16.70;101855.00;;;;5070608;28;20169;-44
2022/11/26 03:34:46;;;;;;;2.43;2.20;;;15.60;66.60;16.70;101856.00;;;;5070490;28;20174;-45
2022/11/26 03:37:11;;;;;;;2.33;2.13;;;15.60;66.60;16.70;101859.00;;;;5070238;28;20205;-46
2022/11/26 03:39:37;;;;;;;2.30;2.10;;;15.60;66.60;16.70;101872.00;;;;5069156;28;20214;-44
2022/11/26 03:42:03;;;;;;;2.37;2.17;;;15.60;66.60;16.70;101884.00;;;;5070151;28;20568;-44
2022/11/26 03:44:29;;;;;;;2.33;2.10;;;15.50;66.50;16.70;101886.00;;;;5070258;28;20178;-45
2022/11/26 03:46:54;;;;;;;2.30;2.10;;;15.50;66.60;16.70;101876.00;;;;5070109;28;20205;-45
2022/11/26 03:49:20;;;;;;;2.20;2.00;;;15.60;66.60;16.70;101892.00;;;;5070350;28;20745;-44
2022/11/26 03:51:46;;;;;;;2.10;2.00;;;15.50;66.60;16.70;101898.00;;;;5070130;28;20186;-45
2022/11/26 03:54:11;;;;;;;2.47;2.27;;;15.50;66.60;16.70;101894.00;;;;5070457;28;20169;-45
2022/11/26 03:56:37;;;;;;;2.50;2.10;;;15.50;67.40;16.70;101906.00;;;;5069900;28;20269;-45
2022/11/26 03:59:03;;;;;;;2.20;2.00;;;15.60;66.70;16.70;101899.00;;;;5069876;28;20512;-44
2022/11/26 04:01:28;;;;;;;2.30;2.10;;;15.50;66.60;16.70;101911.00;;;;5070111;28;20231;-46
2022/11/26 04:03:54;;;;;;;2.37;2.17;;;15.50;66.70;16.60;101901.00;;;;5070319;28;20170;-46
2022/11/26 04:06:20;;;;;;;2.30;2.10;;;15.50;66.60;16.60;101915.00;;;;5070309;28;20185;-44
2022/11/26 04:08:46;;;;;;;2.30;2.00;;;15.50;66.60;16.60;101919.00;;;;5069927;28;20182;-44
2022/11/26 04:11:11;;;;;;;2.17;1.97;;;15.50;66.60;16.60;101920.00;;;;5070140;28;20170;-44
2022/11/26 04:13:37;;;;;;;2.40;2.10;;;15.40;66.50;16.60;101927.00;;;;5070357;28;20221;-44
2022/11/26 04:16:03;;;;;;;2.50;2.30;;;15.40;66.60;16.60;101923.00;;;;5070021;28;20185;-46
2022/11/26 04:18:29;;;;;;;2.20;2.00;;;15.40;66.60;16.60;101931.00;;;;5071305;28;20169;-45
2022/11/26 04:20:54;;;;;;;2.30;2.10;;;15.40;66.60;16.60;101930.00;;;;5070868;28;20189;-43
2022/11/26 04:23:20;;;;;;;2.30;2.10;;;15.40;66.60;16.60;101945.00;;;;5070158;28;20720;-44
2022/11/26 04:25:46;;;;;;;2.27;2.07;;;15.40;66.60;16.60;101935.00;;;;5070383;28;20285;-44
2022/11/26 04:28:12;;;;;;;2.50;2.20;;;15.40;66.60;16.60;101937.00;;;;5069171;28;20197;-45
2022/11/26 04:30:38;;;;;;;6.80;2.43;;;15.40;66.80;16.50;101953.00;;;;5069879;28;20504;-45
2022/11/26 04:33:03;;;;;;;4.37;2.30;;;15.40;67.80;16.50;101953.00;;;;5069368;28;20173;-43
2022/11/26 04:35:29;;;;;;;2.57;2.20;;;15.40;67.20;16.50;101957.00;;;;5069361;28;20181;-45
2022/11/26 04:37:55;;;;;;;4.23;2.40;;;15.40;66.90;16.50;101964.00;;;;5069326;28;20174;-45
2022/11/26 04:40:21;;;;;;;5.27;2.10;;;15.40;66.80;16.50;101968.00;;;;5069317;28;20173;-45
2022/11/26 04:42:46;;;;;;;4.87;2.10;;;15.40;66.90;16.50;101975.00;;;;5069177;28;20654;-44
2022/11/26 04:45:12;;;;;;;3.43;2.23;;;15.40;67.00;16.50;101974.00;;;;5069445;28;20177;-44
2022/11/26 04:47:38;;;;;;;3.67;2.20;;;15.40;67.20;16.50;101978.00;;;;5069402;28;20235;-44
2022/11/26 04:50:05;;;;;;;4.03;2.17;;;15.40;67.20;16.50;101975.00;;;;5069290;28;20168;-46
2022/11/26 04:52:30;;;;;;;4.43;2.40;;;15.40;67.20;16.50;101981.00;;;;5069100;28;20504;-45
2022/11/26 04:54:56;;;;;;;5.77;2.40;;;15.40;67.20;16.50;101977.00;;;;5051016;28;20241;-45
2022/11/26 04:57:22;;;;;;;2.93;2.10;;;15.40;67.20;16.50;101906.00;;;;5069395;28;20184;-44
2022/11/26 04:59:47;;;;;;;3.97;2.23;;;15.40;67.20;16.40;101979.00;;;;5069301;28;20244;-43
2022/11/26 05:02:13;;;;;;;2.57;2.10;;;15.30;67.00;16.40;101992.00;;;;5068932;28;20638;-44
2022/11/26 05:04:39;;;;;;;3.20;2.10;;;15.30;67.00;16.40;101987.00;;;;5069140;28;20264;-44
2022/11/26 05:07:04;;;;;;;3.50;2.30;;;15.30;67.00;16.40;101988.00;;;;5068846;28;20194;-44
2022/11/26 05:09:30;;;;;;;5.13;2.50;;;15.30;67.00;16.40;101999.00;;;;5069171;28;20524;-45
2022/11/26 05:11:56;;;;;;;3.67;2.20;;;15.30;66.90;16.40;102005.00;;;;5068498;28;20701;-43
2022/11/26 05:14:22;;;;;;;3.97;2.30;;;15.30;67.00;16.30;101995.00;;;;5069200;28;20177;-43
2022/11/26 05:16:47;;;;;;;3.63;2.30;;;15.30;67.00;16.10;101999.00;;;;5068294;28;20739;-44
2022/11/26 05:19:13;;;;;;;2.40;2.20;;;15.30;67.10;16.30;101996.00;;;;5053079;28;20449;-44
2022/11/26 05:21:39;;;;;;;3.00;2.30;;;15.40;67.20;16.30;102002.00;;;;5049271;28;20673;-45
2022/11/26 05:24:05;;;;;;;3.87;2.10;;;15.40;67.20;16.40;101992.00;;;;5049796;28;20189;-45
2022/11/26 05:26:31;;;;;;;3.07;2.17;;;15.50;67.10;16.40;101997.00;;;;5071462;28;20251;-45
2022/11/26 05:28:56;;;;;;;6.20;2.23;;;15.50;67.00;16.40;101993.00;;;;5068867;28;20165;-46
2022/11/26 05:31:22;;;;;;;4.30;2.40;;;15.60;67.00;16.40;101995.00;;;;5068241;28;20170;-43
2022/11/26 05:33:48;;;;;;;6.73;2.33;;;15.60;67.00;16.40;102003.00;;;;5050038;28;20675;-45
2022/11/26 05:36:13;;;;;;;7.40;2.33;;;15.60;67.00;16.40;101989.00;;;;5068758;28;20704;-44
2022/11/26 05:38:39;;;;;;;5.90;2.30;;;15.60;67.30;16.40;101987.00;;;;5068761;28;20169;-44
2022/11/26 05:41:05;;;;;;;3.67;2.30;;;15.60;67.20;16.40;101997.00;;;;5068754;28;20166;-46
2022/11/26 05:43:31;;;;;;;6.60;2.47;;;15.60;67.10;16.40;102009.00;;;;5068203;28;20180;-46
2022/11/26 05:46:02;;;;;;;5.43;2.50;;;15.60;67.20;16.40;102006.00;;;;5069060;28;20790;-45
2022/11/26 05:48:28;;;;;;;7.30;2.83;;;15.60;67.40;16.40;102006.00;;;;5034809;28;20204;-44
2022/11/26 05:50:57;;;;;;;5.57;2.40;;;15.70;67.20;16.50;102016.00;;;;5069093;28;20162;-46
2022/11/26 05:53:23;;;;;;;11.53;2.87;;;15.70;67.10;16.50;102008.00;;;;5067652;28;20174;-47
2022/11/26 05:55:49;;;;;;;8.10;2.90;;;15.80;67.10;16.50;102017.00;;;;5068506;28;20787;-47
2022/11/26 05:58:15;;;;;;;12.23;3.10;;;15.90;66.90;16.60;102024.00;;;;5068508;28;20248;-46
2022/11/26 06:00:41;;;;;;;8.40;2.73;;;16.00;66.90;16.60;102022.00;;;;5068622;28;20211;-46
2022/11/26 06:03:06;;;;;;;11.40;2.80;;;16.00;66.80;16.60;102032.00;;;;5067790;28;20180;-45
2022/11/26 06:05:32;;;;;;;7.67;2.57;;;16.10;66.60;16.70;102035.00;;;;5049962;28;20673;-44
2022/11/26 06:07:58;;;;;;;7.20;2.40;;;16.10;66.60;16.70;102033.00;;;;5068841;28;20231;-44
2022/11/26 06:10:24;;;;;;;9.87;2.70;;;16.10;66.60;16.70;102024.00;;;;5068508;28;20231;-45
2022/11/26 06:12:50;;;;;;;8.87;2.93;;;16.10;66.60;16.70;102027.00;;;;5067900;28;20166;-45
2022/11/26 06:15:15;;;;;;;10.90;2.77;;;16.10;66.60;16.80;102037.00;;;;5067801;28;20190;-45
2022/11/26 06:17:41;;;;;;;7.77;2.60;;;16.10;66.60;16.80;102032.00;;;;5050531;28;20190;-44
2022/11/26 06:20:07;;;;;;;7.10;3.00;;;16.10;66.60;16.80;102026.00;;;;5030492;28;20212;-44
2022/11/26 06:22:40;;;;;;;8.30;2.50;;;16.10;66.60;16.80;102021.00;;;;5048332;28;20185;-46
2022/11/26 06:25:08;;;;;;;7.23;2.63;;;16.20;66.60;16.80;102025.00;;;;5047922;28;20178;-45
2022/11/26 06:27:33;;;;;;;7.53;2.53;;;16.20;66.60;16.90;102030.00;;;;5066898;28;20249;-45
2022/11/26 06:29:59;;;;;;;5.40;2.40;;;16.20;66.50;16.90;102035.00;;;;5068326;28;20193;-44
2022/11/26 06:32:25;;;;;;;6.80;2.70;;;16.20;66.50;16.90;102034.00;;;;5067601;28;20256;-44
2022/11/26 06:34:51;;;;;;;6.73;2.47;;;16.20;66.50;16.90;102035.00;;;;5067780;28;20245;-45
2022/11/26 06:37:16;;;;;;;5.93;2.50;;;16.20;66.50;16.90;102033.00;;;;5067920;28;20208;-45
2022/11/26 06:39:42;;;;;;;5.50;2.43;;;16.20;66.60;16.90;102022.00;;;;5068177;28;20181;-48
2022/11/26 06:42:08;;;;;;;4.23;2.10;;;16.20;66.60;16.90;102037.00;;;;5067820;28;20158;-46
2022/11/26 06:44:36;;;;;;;5.73;2.30;;;16.20;66.60;16.90;102038.00;;;;5068449;28;20540;-44
2022/11/26 06:47:02;;;;;;;4.83;2.67;;;16.20;66.60;16.90;102042.00;;;;5072226;28;20194;-45
2022/11/26 06:49:28;;;;;;;3.47;2.23;;;16.30;66.70;16.90;102048.00;;;;5054569;28;20170;-44
2022/11/26 06:51:54;;;;;;;3.93;2.23;;;16.30;66.60;16.90;102044.00;;;;5071749;28;20173;-44
2022/11/26 06:54:19;;;;;;;5.50;2.40;;;16.30;66.40;17.00;102044.00;;;;5071510;28;20181;-46
2022/11/26 06:56:45;;;;;;;2.60;2.03;;;16.30;66.40;17.00;102046.00;;;;5071722;28;20190;-45
2022/11/26 06:59:11;;;;;;;3.57;2.47;;;16.40;66.60;16.90;102047.00;;;;5071521;28;20642;-46
2022/11/26 07:01:37;;;;;;;4.27;2.50;;;16.30;66.60;17.00;102054.00;;;;5071555;28;20188;-46
2022/11/26 07:04:02;;;;;;;4.10;2.50;;;16.30;66.60;17.00;102064.00;;;;5071037;28;20179;-44
2022/11/26 07:06:30;;;;;;;4.30;2.30;;;16.20;66.60;17.00;102036.00;;;;5071456;28;20272;-43
2022/11/26 07:08:57;;;;;;;3.17;2.30;;;16.20;66.60;17.00;102061.00;;;;5054217;28;20165;-45
2022/11/26 07:11:24;;;;;;;3.33;2.10;;;16.30;66.70;17.00;102069.00;;;;5071637;28;20170;-46
2022/11/26 07:13:50;;;;;;;2.30;2.10;;;16.30;66.70;17.00;102065.00;;;;5071438;28;20171;-46
2022/11/26 07:16:16;;;;;;;2.43;2.10;;;16.30;66.60;17.00;102067.00;;;;5053978;28;20201;-44
2022/11/26 07:18:42;;;;;;;2.90;2.30;;;16.30;66.60;17.00;102072.00;;;;5071697;28;20170;-45
2022/11/26 07:21:10;;;;;;;3.50;2.17;;;16.30;66.60;17.00;102082.00;;;;5071205;28;20287;-45
2022/11/26 07:23:36;;;;;;;2.60;2.10;;;16.30;66.60;17.00;102086.00;;;;5070370;28;20177;-45
2022/11/26 07:26:02;;;;;;;3.50;2.20;;;16.30;66.70;17.00;102090.00;;;;5071294;28;20284;-44
2022/11/26 07:28:28;;;;;;;3.27;2.37;;;16.30;66.70;17.00;102104.00;;;;5071711;28;20335;-44
2022/11/26 07:30:54;;;;;;;3.97;2.20;;;16.20;66.70;17.00;102102.00;;;;5071537;28;20219;-45
2022/11/26 07:33:20;;;;;;;3.43;2.23;;;16.20;66.80;17.00;102101.00;;;;5070748;28;20248;-45
2022/11/26 07:35:45;;;;;;;3.10;2.10;;;16.20;66.80;17.00;102096.00;;;;5071241;28;20189;-45
2022/11/26 07:38:11;;;;;;;2.63;2.20;;;16.20;66.70;17.00;102097.00;;;;5071290;28;20198;-45
2022/11/26 07:40:37;;;;;;;2.40;2.10;;;16.30;66.70;17.00;102101.00;;;;5071132;28;20827;-44
2022/11/26 07:43:02;;;;;;;2.83;2.03;;;16.30;66.70;17.00;102110.00;;;;5071032;28;20219;-44
2022/11/26 07:45:28;;;;;;;2.40;2.10;;;16.30;66.60;17.00;102108.00;;;;5071406;28;20190;-46
2022/11/26 07:47:54;;;;;;;2.00;1.90;;;16.30;66.70;17.00;102121.00;;;;5070521;28;20643;-44
2022/11/26 07:50:20;;;;;;;3.10;2.30;;;16.20;66.60;17.00;102112.00;;;;5070853;28;20170;-45
2022/11/26 07:52:45;;;;;;;3.33;2.30;;;16.20;66.70;17.00;102121.00;;;;5070087;28;20177;-44
2022/11/26 07:55:11;;;;;;;2.37;2.17;;;16.20;66.80;17.00;102119.00;;;;5070353;28;20176;-45
2022/11/26 07:57:37;;;;;;;2.10;1.90;;;16.20;66.80;17.00;102118.00;;;;5071009;28;20170;-46
2022/11/26 08:00:03;;;;;;;2.23;2.00;;;16.30;66.80;17.00;102113.00;;;;5070438;28;20819;-45
2022/11/26 08:02:29;;;;;;;4.20;2.20;;;16.30;66.80;17.00;102120.00;;;;5024402;28;20178;-45
2022/11/26 08:04:55;;;;;;;2.37;1.93;;;16.30;66.70;17.00;102112.00;;;;5060158;28;20680;-44
2022/11/26 08:07:20;;;;;;;4.47;2.20;;;16.30;66.70;17.00;102115.00;;;;5045533;28;20240;-45
2022/11/26 08:09:46;;;;;;;4.33;2.10;;;16.30;66.90;17.00;102110.00;;;;5050646;28;20181;-47
2022/11/26 08:12:12;;;;;;;5.00;2.20;;;16.30;66.90;17.00;102116.00;;;;5050542;28;20755;-45
2022/11/26 08:14:38;;;;;;;7.13;2.27;;;16.30;67.00;17.00;102117.00;;;;5049856;28;20162;-45
2022/11/26 08:17:03;;;;;;;8.80;2.50;;;16.30;67.10;17.00;102111.00;;;;5050053;28;20309;-46
2022/11/26 08:19:29;;;;;;;6.73;2.40;;;16.30;67.40;17.00;102112.00;;;;5050477;28;20179;-47
2022/11/26 08:21:55;;;;;;;3.57;2.20;;;16.30;67.50;17.00;102106.00;;;;5050467;28;20174;-46
2022/11/26 08:24:22;;;;;;;3.37;2.27;;;16.30;67.60;17.00;102110.00;;;;5049633;28;20177;-44
2022/11/26 08:26:48;;;;;;;5.27;2.37;;;16.30;67.70;17.00;102112.00;;;;5050720;28;20205;-44
2022/11/26 08:29:14;;;;;;;4.50;2.50;;;16.20;67.80;17.00;102105.00;;;;5049817;28;20167;-44
2022/11/26 08:31:40;;;;;;;6.07;2.40;;;16.30;68.00;17.00;102108.00;;;;5049031;28;20263;-45
2022/11/26 08:34:06;;;;;;;5.17;2.27;;;16.30;68.00;17.00;102121.00;;;;5048762;28;20174;-46
2022/11/26 08:36:32;;;;;;;4.67;2.30;;;16.30;68.00;17.00;102127.00;;;;5049645;28;20183;-45
2022/11/26 08:38:58;;;;;;;9.40;2.70;;;16.30;67.80;17.00;102052.00;;;;5050219;28;20700;-45
2022/11/26 08:41:24;;;;;;;4.90;2.60;;;16.30;67.80;17.00;102127.00;;;;5034225;28;20230;-45
2022/11/26 08:43:50;;;;;;;4.40;2.20;;;16.30;67.70;17.00;102136.00;;;;5005004;28;20177;-45
2022/11/26 08:46:16;;;;;;;3.47;2.40;;;16.30;67.60;17.00;102127.00;;;;5069270;28;20696;-45
2022/11/26 08:48:42;;;;;;;5.70;2.40;;;16.30;67.70;17.00;102122.00;;;;5070018;28;20332;-45
2022/11/26 08:51:09;;;;;;;4.23;2.30;;;16.30;67.60;17.00;102138.00;;;;5071941;28;20204;-46
2022/11/26 08:53:36;;;;;;;4.00;2.30;;;16.30;68.40;17.00;102133.00;;;;5061655;28;20250;-46
2022/11/26 08:56:03;;;;;;;4.30;2.43;;;16.30;67.60;17.00;102137.00;;;;5049513;28;20178;-45
2022/11/26 08:58:28;;;;;;;4.87;2.50;;;16.30;67.60;17.00;102041.00;;;;5049431;28;20175;-45
2022/11/26 09:00:54;;;;;;;3.87;2.37;;;16.20;67.60;17.00;102132.00;;;;5050125;28;20654;-45
2022/11/26 09:03:20;;;;;;;3.03;2.20;;;16.20;67.70;17.00;102130.00;;;;5032382;28;20261;-46
2022/11/26 09:05:45;;;;;;;2.93;2.10;;;16.30;67.80;17.00;102129.00;;;;5049949;28;20194;-46
2022/11/26 09:08:11;;;;;;;2.37;1.93;;;16.30;67.60;17.00;102134.00;;;;5049016;28;20198;-45
2022/11/26 09:10:37;;;;;;;3.70;2.10;;;16.30;67.40;17.00;102133.00;;;;5049292;28;20189;-45
2022/11/26 09:13:03;;;;;;;2.37;2.17;;;16.40;67.50;17.00;102152.00;;;;5048275;28;20428;-44
2022/11/26 09:15:28;;;;;;;3.57;2.50;;;16.30;67.40;17.00;102151.00;;;;5049344;28;20217;-45
2022/11/26 09:17:54;;;;;;;4.97;2.30;;;16.30;67.30;17.00;102157.00;;;;5049155;28;20178;-45
2022/11/26 09:20:20;;;;;;;3.53;2.30;;;16.30;67.30;17.00;102156.00;;;;5049198;28;20174;-45
2022/11/26 09:22:45;;;;;;;3.03;2.30;;;16.40;67.50;17.00;102153.00;;;;5049118;28;20174;-44
2022/11/26 09:25:11;;;;;;;2.73;2.40;;;16.30;67.50;17.00;102160.00;;;;5049197;28;20178;-46
2022/11/26 09:27:37;;;;;;;2.93;2.40;;;16.30;67.50;17.00;102082.00;;;;5049154;28;20555;-46
2022/11/26 09:30:04;;;;;;;3.17;2.20;;;16.30;67.50;17.00;102164.00;;;;5049533;28;20190;-45
2022/11/26 09:32:29;;;;;;;2.30;2.10;;;16.30;67.50;17.00;102177.00;;;;5048733;28;20254;-45
2022/11/26 09:34:55;;;;;;;3.63;2.10;;;16.30;67.50;17.00;102167.00;;;;5049091;28;20245;-45
2022/11/26 09:37:21;;;;;;;3.53;2.20;;;16.30;67.40;16.80;102169.00;;;;5049096;28;20770;-46
2022/11/26 09:39:46;;;;;;;2.20;2.00;;;16.40;67.50;17.00;102165.00;;;;5048948;28;20178;-54
2022/11/26 09:42:36;;;;;;;2.93;2.10;;;16.40;67.40;17.10;102159.00;;;;5048935;28;20174;-44
2022/11/26 09:45:26;;;;;;;2.30;2.10;;;16.40;67.40;17.10;102152.00;;;;5015529;28;20170;-45
2022/11/26 09:47:52;;;;;;;2.97;2.43;;;16.40;67.40;17.00;102165.00;;;;5038315;28;20214;-45
2022/11/26 09:50:28;;;;;;;3.07;2.33;;;16.40;67.40;17.10;102168.00;;;;5031915;28;20236;-45
2022/11/26 09:52:59;;;;;;;2.30;2.10;;;16.30;67.40;17.00;102158.00;;;;5031378;28;20169;-45
2022/11/26 09:55:34;;;;;;;2.33;2.00;;;16.40;67.50;17.10;102168.00;;;;5015288;28;20190;-45
2022/11/26 09:58:33;;;;;;;2.57;2.23;;;16.30;67.40;17.10;102172.00;;;;5049044;28;20183;-46
2022/11/26 10:00:59;;;;;;;3.23;2.50;;;16.30;67.50;17.00;102167.00;;;;5017585;28;20174;-45
2022/11/26 10:03:35;;;;;;;4.73;2.50;;;16.30;67.50;17.00;102164.00;;;;5030627;28;20178;-45
2022/11/26 10:06:55;;;;;;;3.67;2.50;;;16.30;67.50;17.00;102169.00;;;;5048656;28;20243;-44
2022/11/26 10:09:41;;;;;;;2.30;2.10;;;16.30;67.50;17.00;102162.00;;;;4967703;28;20221;-47
2022/11/26 10:12:51;;;;;;;2.57;2.17;;;16.30;67.60;17.00;102166.00;;;;5043233;28;20182;-46
2022/11/26 10:15:33;;;;;;;6.43;2.33;;;16.30;67.60;17.00;102169.00;;;;5018531;28;20285;-44
2022/11/26 10:18:44;;;;;;;14.30;2.70;;;16.30;67.80;17.00;102166.00;;;;5015622;28;20201;-45
2022/11/26 10:21:35;;;;;;;11.57;2.97;;;16.30;68.00;17.00;102161.00;;;;5037851;28;20253;-45
2022/11/26 10:24:37;;;;;;;15.43;2.83;;;16.30;68.00;17.00;102160.00;;;;4900060;28;20279;-45
2022/11/26 10:27:15;;;;;;;13.57;2.90;;;16.30;68.20;17.00;102161.00;;;;5034582;28;20552;-46
2022/11/26 10:29:42;;;;;;;8.80;2.40;;;16.30;68.10;17.00;102155.00;;;;5043746;28;20169;-46
2022/11/26 10:32:31;;;;;;;8.30;2.50;;;16.30;68.00;17.00;102160.00;;;;5054462;28;20170;-46
2022/11/26 10:34:57;;;;;;;11.57;2.67;;;16.40;67.90;17.00;102167.00;;;;5039211;28;20199;-44
2022/11/26 10:37:24;;;;;;;8.27;2.60;;;16.40;67.90;17.00;102167.00;;;;5072244;28;20170;-44
2022/11/26 10:40:20;;;;;;;7.73;2.47;;;16.40;67.80;17.10;102168.00;;;;5071697;28;20173;-47
2022/11/26 10:43:04;;;;;;;6.07;2.50;;;16.30;67.60;17.10;102162.00;;;;5057175;28;20184;-45
2022/11/26 10:45:40;;;;;;;5.97;2.50;;;16.40;67.80;17.10;102166.00;;;;5072499;28;20197;-45
2022/11/26 10:48:25;;;;;;;6.33;2.23;;;16.30;67.80;17.10;102161.00;;;;5077456;28;20216;-46
2022/11/26 10:51:12;;;;;;;6.27;2.30;;;16.30;67.80;17.10;102158.00;;;;5078443;28;20207;-45
2022/11/26 10:54:01;;;;;;;7.03;3.00;;;16.30;67.80;17.10;102152.00;;;;5054340;28;20154;-45
2022/11/26 10:56:46;;;;;;;6.43;2.30;;;16.30;67.90;17.10;102160.00;;;;5054919;28;20195;-46